Terminal Aerodrome Forecast
Issued by NWS

Home | Current Version | Previous Version | Text Only | Print | Product List | Glossary On
Versions: 1 2 3 4 5 6 7 8 9 10 11 12 13 14 15 16 17 18 19 20 21 22 23 24 25 26 27 28 29 30 31 32
000
FTUS43 KIND 201900 AAA
TAFHUF
TAF AMD
KHUF 201933Z 2020/2118 26008KT P6SM -SHRA VCTS SCT025CB BKN100
     FM202100 24005KT P6SM SCT050 SCT120 BKN200
     FM210100 21003KT P6SM SCT050 BKN250
     FM210800 19002KT 4SM BR VCTS BKN045CB
     FM211500 22007KT P6SM SCT050 BKN250=

USA.gov is the U.S. government's official web portal to all federal, state and local government web resources and services.